Time;durP1;ratioP1;P1;durP2;ratioP2;P2;SDS_P1;SDS_P2;PMS_P1;PMS_P2;Temp;Humidity;BMP_temperature;BMP_pressure;BME280_temperature;BME280_humidity;BME280_pressure;Samples;Min_cycle;Max_cycle;Signal;HPM_P1;HPM_P2
2022/08/29 00:00:01;;;;;;;3.80;3.50;;;;;;;20.12;80.15;99662.60;213993;1276;140213;-67
2022/08/29 00:05:30;;;;;;;4.80;4.30;;;;;;;20.12;80.12;99666.66;213115;1277;140691;-69
2022/08/29 00:10:39;;;;;;;6.00;4.40;;;;;;;20.12;80.21;99670.18;213367;1277;142062;-67
2022/08/29 00:15:45;;;;;;;5.60;5.00;;;;;;;20.07;80.23;99671.45;213585;1277;140121;-69
2022/08/29 00:20:50;;;;;;;6.70;5.80;;;;;;;20.03;80.32;99665.73;213049;1277;140762;-69
2022/08/29 00:25:55;;;;;;;6.20;5.60;;;;;;;20.05;80.52;99664.67;215106;1275;140758;-71
2022/08/29 00:31:00;;;;;;;7.40;6.50;;;;;;;20.00;80.50;99667.20;213545;1275;141174;-69
2022/08/29 00:36:04;;;;;;;11.80;7.60;;;;;;;19.96;80.70;99668.69;214874;1275;140482;-67
2022/08/29 00:41:09;;;;;;;15.60;7.10;;;;;;;19.89;80.60;99672.10;215324;1276;140968;-68
2022/08/29 00:46:42;;;;;;;12.30;6.70;;;;;;;19.84;80.71;99680.86;215434;1275;141948;-68
2022/08/29 00:51:47;;;;;;;9.10;7.80;;;;;;;19.81;80.77;99682.95;214930;1276;142220;-68
2022/08/29 00:56:53;;;;;;;7.40;6.50;;;;;;;19.78;80.89;99685.23;216019;1277;141132;-67
2022/08/29 01:01:58;;;;;;;7.50;6.00;;;;;;;19.74;80.72;99683.02;215226;1277;140199;-68
2022/08/29 01:07:03;;;;;;;10.00;7.10;;;;;;;19.68;80.75;99684.27;215910;1277;140476;-67
2022/08/29 01:12:17;;;;;;;8.50;7.40;;;;;;;19.67;80.88;99685.63;214211;1276;140091;-67
2022/08/29 01:17:26;;;;;;;7.60;6.90;;;;;;;19.67;81.12;99688.53;215125;1276;141124;-68
2022/08/29 01:22:53;;;;;;;7.40;6.70;;;;;;;19.65;80.87;99685.98;214344;1277;140886;-67
2022/08/29 01:28:09;;;;;;;8.50;7.70;;;;;;;19.62;80.92;99691.05;214638;1276;140933;-67
2022/08/29 01:33:14;;;;;;;8.80;8.10;;;;;;;19.58;80.96;99692.52;214379;1275;140215;-68
2022/08/29 01:38:26;;;;;;;11.10;9.00;;;;;;;19.53;81.08;99699.34;214213;1276;141826;-67
2022/08/29 01:43:40;;;;;;;11.20;7.70;;;;;;;19.49;81.17;99706.71;214888;1277;140900;-68
2022/08/29 01:48:46;;;;;;;7.50;6.80;;;;;;;19.49;81.39;99708.81;213127;1275;141861;-69
2022/08/29 01:53:52;;;;;;;11.80;8.40;;;;;;;19.44;81.28;99720.30;213776;1276;141541;-67
2022/08/29 01:59:01;;;;;;;8.60;7.90;;;;;;;19.39;81.24;99725.39;213843;1277;142830;-67
2022/08/29 02:04:06;;;;;;;12.40;8.70;;;;;;;19.37;81.42;99722.56;213280;1277;141284;-67
2022/08/29 02:09:11;;;;;;;9.90;8.50;;;;;;;19.35;81.45;99730.31;212921;1277;142153;-68
2022/08/29 02:14:15;;;;;;;8.30;7.50;;;;;;;19.33;81.70;99733.43;214325;1276;141482;-68
2022/08/29 02:19:22;;;;;;;;;;;;;;;19.32;81.77;99734.79;213998;1276;141612;-67
2022/08/29 02:24:25;;;;;;;8.80;7.20;;;;;;;19.29;81.67;99733.80;215504;1276;127428;-68
2022/08/29 02:29:29;;;;;;;8.00;7.10;;;;;;;19.27;81.77;99739.02;213741;1276;141386;-66
2022/08/29 02:34:45;;;;;;;10.00;8.40;;;;;;;19.26;81.78;99744.45;213908;1276;142453;-69
2022/08/29 02:39:52;;;;;;;12.10;8.70;;;;;;;19.24;81.65;99747.64;214890;1276;143118;-69
2022/08/29 02:44:56;;;;;;;7.30;6.20;;;;;;;19.22;81.52;99749.54;215806;1276;140439;-69
2022/08/29 02:50:08;;;;;;;12.50;8.50;;;;;;;19.18;81.36;99754.20;215869;1276;140071;-68
2022/08/29 02:55:18;;;;;;;9.10;8.30;;;;;;;19.16;81.46;99758.48;216078;1274;141742;-70
2022/08/29 03:00:25;;;;;;;12.60;8.60;;;;;;;19.14;81.43;99758.17;215751;1276;140772;-69
2022/08/29 03:05:33;;;;;;;8.50;7.70;;;;;;;19.19;81.65;99761.91;215508;1274;140978;-70
2022/08/29 03:10:37;;;;;;;8.10;7.40;;;;;;;19.23;81.61;99761.32;215309;1277;140028;-70
2022/08/29 03:15:42;;;;;;;8.80;8.00;;;;;;;19.24;81.37;99760.44;214130;1275;141942;-68
2022/08/29 03:20:46;;;;;;;11.50;7.30;;;;;;;19.21;81.45;99762.80;215131;1276;140535;-69
2022/08/29 03:25:54;;;;;;;16.50;7.10;;;;;;;19.16;81.17;99767.61;214476;1276;151303;-69
2022/08/29 03:30:59;;;;;;;11.90;9.00;;;;;;;19.09;81.14;99780.67;214291;1276;140955;-70
2022/08/29 03:36:04;;;;;;;7.90;7.20;;;;;;;19.01;81.09;99782.33;214611;1276;140695;-71
2022/08/29 03:41:27;;;;;;;10.70;7.50;;;;;;;18.95;81.17;99782.79;213615;1277;142564;-69
2022/08/29 03:46:31;;;;;;;7.80;7.00;;;;;;;18.93;81.17;99792.23;213499;1276;140889;-69
2022/08/29 03:51:38;;;;;;;8.50;7.60;;;;;;;18.87;81.28;99796.39;214076;1275;152106;-68
2022/08/29 03:56:43;;;;;;;8.90;8.00;;;;;;;18.86;81.44;99810.30;213615;1277;141614;-69
2022/08/29 04:01:49;;;;;;;14.00;8.60;;;;;;;18.88;81.51;99816.11;213470;1277;140925;-71
2022/08/29 04:06:54;;;;;;;12.80;9.40;;;;;;;18.85;81.26;99821.11;214014;1276;140908;-68
2022/08/29 04:11:58;;;;;;;11.90;7.80;;;;;;;18.78;80.97;99829.06;214677;1277;140996;-67
2022/08/29 04:17:03;;;;;;;10.10;8.90;;;;;;;18.64;80.80;99834.66;214972;1276;140923;-68
2022/08/29 04:22:08;;;;;;;10.00;6.60;;;;;;;18.54;80.68;99845.58;214554;1276;141509;-67
2022/08/29 04:27:13;;;;;;;14.80;8.40;;;;;;;18.44;80.74;99855.33;214210;1275;140628;-67
2022/08/29 04:32:21;;;;;;;12.00;7.40;;;;;;;18.40;80.68;99861.02;215177;1275;141227;-68
2022/08/29 04:37:25;;;;;;;10.90;7.20;;;;;;;18.33;80.58;99862.77;214501;1276;140573;-67
2022/08/29 04:42:30;;;;;;;10.90;6.20;;;;;;;18.29;80.66;99861.95;214621;1276;140788;-68
2022/08/29 04:47:38;;;;;;;8.70;7.00;;;;;;;18.31;80.74;99860.75;215752;1276;140624;-68
2022/08/29 04:52:43;;;;;;;9.20;6.90;;;;;;;18.37;80.79;99862.89;215922;1277;143264;-68
2022/08/29 04:57:50;;;;;;;9.70;6.10;;;;;;;18.49;80.71;99868.84;215877;1276;140304;-69
2022/08/29 05:02:56;;;;;;;8.80;7.10;;;;;;;18.48;80.09;99869.27;216107;1277;139820;-70
2022/08/29 05:08:00;;;;;;;16.40;6.60;;;;;;;18.41;79.75;99875.05;215953;1276;140724;-70
2022/08/29 05:13:04;;;;;;;11.40;6.50;;;;;;;18.40;79.74;99880.56;215860;1276;141646;-70
2022/08/29 05:18:10;;;;;;;7.80;5.00;;;;;;;18.45;79.54;99890.30;215526;1276;141087;-70
2022/08/29 05:23:16;;;;;;;5.90;4.60;;;;;;;18.46;79.32;99894.66;214527;1276;140391;-68
2022/08/29 05:28:21;;;;;;;12.20;5.50;;;;;;;18.40;78.91;99893.69;214833;1277;140761;-69
2022/08/29 05:33:26;;;;;;;12.30;4.40;;;;;;;18.33;78.77;99899.04;214701;1276;141630;-69
2022/08/29 05:38:31;;;;;;;5.90;4.70;;;;;;;18.36;78.78;99900.41;213574;1277;141205;-67
2022/08/29 05:43:39;;;;;;;5.70;3.80;;;;;;;18.37;78.56;99904.73;214105;1277;141507;-71
2022/08/29 05:48:44;;;;;;;4.60;4.10;;;;;;;18.34;78.32;99907.73;213951;1277;140762;-67
2022/08/29 05:53:49;;;;;;;5.30;3.80;;;;;;;18.35;78.38;99908.63;214366;1277;141083;-66
2022/08/29 05:58:55;;;;;;;7.50;4.60;;;;;;;18.43;78.38;99908.40;213970;1276;142679;-68
2022/08/29 06:04:00;;;;;;;4.40;4.00;;;;;;;18.54;78.50;99915.39;213919;1276;141485;-67
2022/08/29 06:09:07;;;;;;;9.60;4.40;;;;;;;18.63;78.11;99917.13;213138;1276;142234;-68
2022/08/29 06:14:13;;;;;;;9.20;4.70;;;;;;;18.83;78.07;99926.08;213867;1276;206442;-69
2022/08/29 06:19:19;;;;;;;6.60;4.70;;;;;;;18.98;78.09;99933.11;213704;1276;141342;-68
2022/08/29 06:24:23;;;;;;;10.40;5.10;;;;;;;19.05;77.59;99939.68;214230;1276;141537;-68
2022/08/29 06:29:29;;;;;;;10.30;5.10;;;;;;;19.09;77.44;99938.73;213872;1277;142366;-69
2022/08/29 06:34:33;;;;;;;6.10;4.40;;;;;;;19.11;77.45;99942.01;214046;1276;141026;-68
2022/08/29 06:39:36;;;;;;;4.50;3.80;;;;;;;19.12;77.03;99944.44;214499;1276;140541;-69
2022/08/29 06:44:41;;;;;;;8.30;5.40;;;;;;;19.21;76.69;99950.55;215151;1276;141298;-67
2022/08/29 06:49:47;;;;;;;5.90;4.50;;;;;;;19.51;76.57;99958.30;215299;1276;139414;-67
2022/08/29 06:54:52;;;;;;;5.80;4.40;;;;;;;19.90;75.80;99967.19;216087;1276;140676;-68
2022/08/29 06:59:57;;;;;;;11.60;4.90;;;;;;;20.38;74.92;99967.23;216008;1275;140984;-68
2022/08/29 07:05:04;;;;;;;11.10;4.70;;;;;;;20.76;74.15;99973.85;214804;1275;141969;-68
2022/08/29 07:10:11;;;;;;;3.80;3.40;;;;;;;20.89;73.48;99978.34;214755;1276;141122;-67
2022/08/29 07:15:19;;;;;;;12.10;4.80;;;;;;;21.00;72.56;99984.92;215744;1276;140647;-70
2022/08/29 07:20:24;;;;;;;6.40;4.10;;;;;;;21.83;72.38;99985.60;215287;1275;139363;-68
2022/08/29 07:25:29;;;;;;;5.20;4.10;;;;;;;22.82;71.34;99984.52;214783;1276;140804;-66
2022/08/29 07:30:36;;;;;;;8.40;3.60;;;;;;;23.40;70.45;99990.55;215016;1276;139119;-66
2022/08/29 07:35:47;;;;;;;3.90;3.10;;;;;;;24.09;69.66;99993.55;214848;1276;139297;-66
2022/08/29 07:41:16;;;;;;;9.30;4.00;;;;;;;24.46;68.03;99996.41;214682;1276;139553;-66
2022/08/29 07:46:19;;;;;;;8.20;4.00;;;;;;;24.62;66.83;100000.17;214874;1274;140140;-66
2022/08/29 07:51:25;;;;;;;10.50;3.50;;;;;;;24.89;65.74;100004.30;214698;1275;139683;-67
2022/08/29 07:56:34;;;;;;;5.80;3.90;;;;;;;24.78;64.70;100012.08;213830;1276;140006;-67
2022/08/29 08:01:42;;;;;;;5.50;3.50;;;;;;;24.92;64.16;100016.27;213799;1275;140962;-67
2022/08/29 08:06:46;;;;;;;4.20;3.00;;;;;;;24.55;62.87;100020.83;214091;1275;139357;-66
2022/08/29 08:11:51;;;;;;;6.50;3.50;;;;;;;24.51;63.30;100020.78;214411;1276;140349;-66
2022/08/29 08:16:55;;;;;;;7.00;3.60;;;;;;;24.28;62.04;100020.96;213922;1277;139773;-66
2022/08/29 08:22:01;;;;;;;4.80;3.90;;;;;;;24.38;62.46;100021.27;214173;1275;140486;-68
2022/08/29 08:27:05;;;;;;;10.10;3.60;;;;;;;24.64;61.88;100022.73;214373;1275;141072;-67
2022/08/29 08:32:09;;;;;;;7.20;3.30;;;;;;;24.84;60.94;100023.02;214196;1275;139810;-67
2022/08/29 08:37:16;;;;;;;9.10;4.40;;;;;;;24.89;60.06;100023.81;214087;1276;140152;-65
2022/08/29 08:42:41;;;;;;;7.50;3.70;;;;;;;24.70;59.23;100027.92;213639;1275;140363;-66
2022/08/29 08:47:58;;;;;;;8.00;2.80;;;;;;;24.41;58.83;100029.15;213648;1276;140005;-68
2022/08/29 08:53:20;;;;;;;5.50;3.10;;;;;;;24.57;58.80;100032.71;215891;1275;139636;-71
2022/08/29 08:58:55;;;;;;;5.10;3.40;;;;;;;24.46;57.97;100023.77;214477;1275;139965;-66
2022/08/29 09:04:36;;;;;;;5.60;3.10;;;;;;;24.53;57.62;100021.04;215845;1275;141130;-69
2022/08/29 09:09:56;;;;;;;5.10;3.50;;;;;;;24.10;56.42;100023.05;216014;1276;140450;-67
2022/08/29 09:15:06;;;;;;;6.90;2.70;;;;;;;24.14;56.77;100021.30;215151;1276;141133;-69
2022/08/29 09:20:21;;;;;;;5.00;2.40;;;;;;;24.52;57.16;100026.81;215271;1276;139458;-68
2022/08/29 09:25:27;;;;;;;14.00;3.90;;;;;;;24.95;56.96;100024.23;215140;1276;140094;-67
2022/08/29 09:30:33;;;;;;;7.90;3.50;;;;;;;24.98;56.04;100031.66;214652;1275;140504;-67
2022/08/29 09:35:41;;;;;;;;;;;;;;;25.00;56.03;100029.98;214347;1277;139525;-68
2022/08/29 09:40:47;;;;;;;7.60;3.50;;;;;;;25.22;55.96;100028.08;213844;1275;126123;-68
2022/08/29 09:46:08;;;;;;;9.50;3.20;;;;;;;25.21;55.39;100030.66;213988;1275;140072;-69
2022/08/29 09:51:34;;;;;;;5.00;3.20;;;;;;;25.35;54.97;100024.63;213395;1276;141326;-69
2022/08/29 09:56:48;;;;;;;8.30;3.20;;;;;;;25.00;54.74;100021.03;215424;1274;140133;-69
2022/08/29 10:02:18;;;;;;;7.00;2.80;;;;;;;25.28;54.78;100026.75;214154;1276;140518;-68
2022/08/29 10:07:26;;;;;;;7.20;3.00;;;;;;;25.58;53.87;100026.08;213449;1276;1736246;-69
2022/08/29 10:12:39;;;;;;;5.30;2.80;;;;;;;25.93;53.17;100025.92;214087;1276;141247;-69
2022/08/29 10:18:19;;;;;;;7.20;2.30;;;;;;;26.05;52.24;100021.02;213430;1276;140185;-67
2022/08/29 10:23:36;;;;;;;6.30;3.30;;;;;;;26.30;51.45;100024.74;214426;1275;139470;-68
2022/08/29 10:28:50;;;;;;;8.10;2.80;;;;;;;26.22;50.71;100022.47;214184;1276;139637;-67
2022/08/29 10:34:19;;;;;;;3.80;2.40;;;;;;;26.04;50.23;100025.45;214813;1276;141055;-67
2022/08/29 10:39:37;;;;;;;2.60;2.20;;;;;;;25.30;49.93;100026.59;214029;1275;140202;-67
2022/08/29 10:44:55;;;;;;;8.60;2.70;;;;;;;25.10;50.27;100013.82;214531;1274;140351;-67
2022/08/29 10:50:10;;;;;;;6.60;2.60;;;;;;;24.78;50.27;100016.29;214283;1275;140138;-67
2022/08/29 10:55:47;;;;;;;5.70;2.60;;;;;;;24.56;50.44;100016.61;216064;1276;139534;-67
2022/08/29 11:00:57;;;;;;;3.70;2.50;;;;;;;24.59;50.57;100020.65;216002;1276;141653;-67
2022/08/29 11:06:17;;;;;;;6.30;2.70;;;;;;;24.76;50.98;100021.52;215697;1277;139624;-67
2022/08/29 11:11:30;;;;;;;4.00;2.30;;;;;;;24.69;50.42;100023.28;216060;1277;141228;-68
2022/08/29 11:16:45;;;;;;;4.50;2.40;;;;;;;24.85;50.41;100020.58;215913;1275;139951;-69
2022/08/29 11:21:59;;;;;;;3.90;3.10;;;;;;;25.10;50.24;100020.79;215901;1275;140375;-68
2022/08/29 11:27:36;;;;;;;5.50;3.50;;;;;;;24.91;49.42;100023.40;215295;1276;140746;-67
2022/08/29 11:32:46;;;;;;;;;;;;;;;24.68;49.25;100024.02;214742;1275;141375;-68
2022/08/29 11:38:03;;;;;;;6.10;3.20;;;;;;;24.78;49.32;100024.17;215226;1276;127338;-68
2022/08/29 11:43:13;;;;;;;4.40;2.50;;;;;;;24.80;49.46;100025.59;214167;1275;140250;-68
2022/08/29 11:48:30;;;;;;;4.40;2.70;;;;;;;25.09;49.47;100023.67;215231;1274;140569;-69
2022/08/29 11:53:34;;;;;;;6.30;2.90;;;;;;;25.35;49.10;100030.64;214775;1275;151434;-66
2022/08/29 11:58:42;;;;;;;3.50;2.10;;;;;;;25.43;49.18;100024.79;213590;1277;140826;-65
2022/08/29 12:03:54;;;;;;;3.40;2.50;;;;;;;25.47;48.52;100019.74;213913;1274;140300;-66
2022/08/29 12:09:02;;;;;;;3.60;2.40;;;;;;;25.28;49.00;100023.41;214105;1276;139331;-68
2022/08/29 12:14:34;;;;;;;4.50;2.60;;;;;;;24.82;48.70;100024.34;214138;1276;139668;-68
2022/08/29 12:19:46;;;;;;;4.80;2.90;;;;;;;24.73;49.59;100024.56;214293;1277;139678;-66
2022/08/29 12:24:51;;;;;;;6.40;2.40;;;;;;;24.95;49.31;100023.70;214705;1276;150986;-66
2022/08/29 12:30:01;;;;;;;2.10;1.90;;;;;;;24.98;49.44;100021.00;214441;1274;139887;-68
2022/08/29 12:35:25;;;;;;;3.90;2.00;;;;;;;25.13;49.24;100019.17;215500;1274;139760;-68
2022/08/29 12:41:06;;;;;;;4.30;2.70;;;;;;;25.25;49.07;100016.64;214809;1274;139231;-66
2022/08/29 12:46:17;;;;;;;3.70;2.30;;;;;;;25.03;48.74;100017.02;213882;1274;152538;-66
2022/08/29 12:51:33;;;;;;;4.30;2.30;;;;;;;24.98;48.55;100011.74;215130;1274;142906;-66
2022/08/29 12:56:47;;;;;;;5.20;2.40;;;;;;;24.98;48.19;100006.77;215436;1274;140945;-66
2022/08/29 13:01:53;;;;;;;14.30;3.00;;;;;;;24.88;48.02;100011.29;215950;1274;140443;-66
2022/08/29 13:07:05;;;;;;;3.30;2.20;;;;;;;24.64;48.13;100006.90;215766;1274;141026;-67
2022/08/29 13:12:12;;;;;;;4.60;2.50;;;;;;;24.79;48.57;100006.54;216106;1274;140863;-67
2022/08/29 13:17:19;;;;;;;4.00;2.70;;;;;;;24.96;48.26;100009.10;215449;1274;140594;-66
2022/08/29 13:22:24;;;;;;;9.60;2.70;;;;;;;24.68;48.32;100008.81;215363;1274;141076;-66
2022/08/29 13:27:34;;;;;;;4.80;3.00;;;;;;;24.36;48.52;100004.05;214888;1274;140345;-67
2022/08/29 13:32:48;;;;;;;3.30;2.20;;;;;;;24.25;49.26;99999.30;214291;1274;140924;-67
2022/08/29 13:38:25;;;;;;;3.90;2.40;;;;;;;24.00;49.34;100001.18;214871;1274;139273;-67
2022/08/29 13:43:39;;;;;;;9.70;3.10;;;;;;;23.70;49.76;100001.55;214110;1274;139323;-67
2022/08/29 13:48:44;;;;;;;6.80;2.30;;;;;;;23.64;50.38;99997.08;213821;1274;141218;-66
2022/08/29 13:53:51;;;;;;;7.90;2.60;;;;;;;23.61;50.06;99994.02;213627;1274;139953;-68
2022/08/29 13:58:57;;;;;;;3.70;2.60;;;;;;;23.82;50.75;99986.89;213633;1274;138884;-67
2022/08/29 14:04:01;;;;;;;7.30;2.30;;;;;;;24.24;50.82;99980.91;213358;1274;140611;-67
2022/08/29 14:09:36;;;;;;;6.50;2.70;;;;;;;24.46;49.96;99989.00;214937;1274;140338;-67
2022/08/29 14:14:42;;;;;;;3.50;2.50;;;;;;;24.46;49.81;99994.49;213436;1274;139478;-68
2022/08/29 14:19:46;;;;;;;;;;;;;;;24.47;50.03;99992.02;214507;1274;139788;-68
2022/08/29 14:24:52;;;;;;;6.50;2.80;;;;;;;24.38;49.68;99997.98;214300;1274;126238;-67
2022/08/29 14:29:57;;;;;;;2.60;2.10;;;;;;;24.29;50.09;99995.21;214895;1274;139984;-67
2022/08/29 14:35:02;;;;;;;6.50;3.40;;;;;;;24.14;50.37;99992.91;214940;1274;139649;-67
2022/08/29 14:40:09;;;;;;;3.50;2.30;;;;;;;24.05;50.51;99997.70;213625;1274;140251;-67
2022/08/29 14:45:13;;;;;;;3.90;2.30;;;;;;;24.01;50.65;99989.11;214494;1275;139654;-66
2022/08/29 14:50:18;;;;;;;2.70;2.50;;;;;;;23.95;50.37;99984.34;215552;1274;141286;-66
2022/08/29 14:55:22;;;;;;;4.40;2.60;;;;;;;23.91;50.28;99988.37;215764;1274;140002;-66
2022/08/29 15:00:27;;;;;;;4.40;2.20;;;;;;;23.91;49.93;99992.50;216067;1274;140789;-67
2022/08/29 15:05:32;;;;;;;3.30;2.50;;;;;;;23.90;50.26;99994.77;216001;1274;140850;-69
2022/08/29 15:10:37;;;;;;;3.80;2.50;;;;;;;23.89;50.17;99995.60;216151;1274;139515;-67
2022/08/29 15:15:41;;;;;;;6.20;2.70;;;;;;;23.89;50.20;99998.49;216039;1274;139742;-65
2022/08/29 15:20:45;;;;;;;3.30;2.10;;;;;;;23.83;50.48;99999.94;214502;1274;162693;-65
2022/08/29 15:25:50;;;;;;;7.90;2.50;;;;;;;23.87;50.45;99995.77;214806;1274;139576;-65
2022/08/29 15:30:55;;;;;;;4.90;2.60;;;;;;;23.78;50.67;99993.77;215451;1274;140400;-67
2022/08/29 15:36:00;;;;;;;2.80;1.90;;;;;;;23.69;50.83;99995.65;215022;1274;139955;-66
2022/08/29 15:41:05;;;;;;;3.90;2.60;;;;;;;23.47;51.00;99994.43;214331;1274;140507;-67
2022/08/29 15:46:10;;;;;;;4.00;2.20;;;;;;;23.19;51.36;99988.21;215254;1274;141726;-68
2022/08/29 15:51:14;;;;;;;6.90;1.80;;;;;;;23.02;51.98;99993.93;213461;1274;140057;-67
2022/08/29 15:56:20;;;;;;;7.80;2.30;;;;;;;22.81;51.87;99993.77;214375;1275;140103;-68
2022/08/29 16:01:27;;;;;;;4.50;3.00;;;;;;;22.60;52.37;99985.66;213542;1274;162413;-68
2022/08/29 16:06:33;;;;;;;7.40;2.50;;;;;;;22.41;52.92;99986.30;213967;1274;141407;-66
2022/08/29 16:11:45;;;;;;;4.20;2.90;;;;;;;22.19;53.33;99986.55;213393;1274;141219;-66
2022/08/29 16:16:50;;;;;;;7.30;2.70;;;;;;;22.00;54.19;99986.02;213453;1274;140066;-67
2022/08/29 16:21:58;;;;;;;4.50;2.60;;;;;;;21.83;54.42;99981.86;213220;1274;140069;-68
2022/08/29 16:27:07;;;;;;;5.10;2.80;;;;;;;21.73;54.80;99988.90;214541;1274;139569;-68
2022/08/29 16:32:13;;;;;;;8.50;3.20;;;;;;;21.60;55.19;99982.38;214248;1274;139790;-69
2022/08/29 16:37:19;;;;;;;1.80;1.70;;;;;;;21.47;55.49;99986.44;214512;1274;141135;-69
2022/08/29 16:42:26;;;;;;;5.80;2.50;;;;;;;21.34;55.70;99984.69;215336;1274;141428;-67
2022/08/29 16:47:37;;;;;;;3.10;2.30;;;;;;;21.24;55.96;99983.61;216065;1274;139937;-68
2022/08/29 16:52:41;;;;;;;3.80;2.10;;;;;;;21.17;56.12;99981.10;214521;1274;140862;-66
2022/08/29 16:58:58;;;;;;;6.00;2.60;;;;;;;21.09;56.31;99979.83;216038;1274;140402;-67
2022/08/29 17:03:11;;;;;;;2.30;2.10;;;;;;;21.02;56.51;99982.96;215098;1274;150835;-67
2022/08/29 17:18:28;;;;;;;3.50;2.40;;;;;;;20.83;57.12;99991.94;214025;1274;139651;-66
2022/08/29 17:23:34;;;;;;;2.30;2.20;;;;;;;20.67;57.43;99994.59;215029;1274;140405;-66
2022/08/29 17:28:41;;;;;;;4.70;2.70;;;;;;;20.52;57.73;99991.56;215354;1274;140188;-67
2022/08/29 17:33:47;;;;;;;3.30;2.50;;;;;;;20.40;57.96;99989.73;214050;1274;140044;-67
2022/08/29 17:38:52;;;;;;;4.30;2.10;;;;;;;20.26;58.24;99995.81;215382;1274;141392;-66
2022/08/29 17:43:57;;;;;;;;;;;;;;;20.10;58.48;99999.77;214741;1274;139596;-66
2022/08/29 17:49:03;;;;;;;3.20;2.50;;;;;;;19.92;58.67;100005.26;214303;1274;125617;-68
2022/08/29 17:54:11;;;;;;;5.70;3.20;;;;;;;19.73;58.89;100002.08;214553;1274;139710;-66
2022/08/29 17:59:19;;;;;;;6.40;3.00;;;;;;;19.62;59.15;100007.34;213552;1275;139581;-66
2022/08/29 18:04:26;;;;;;;5.60;2.70;;;;;;;19.49;59.48;100013.41;214006;1274;140898;-66
2022/08/29 18:09:30;;;;;;;4.60;2.50;;;;;;;19.36;59.75;100026.17;214116;1274;139718;-67
2022/08/29 18:14:34;;;;;;;5.10;3.20;;;;;;;19.20;60.27;100029.16;213008;1274;140153;-68
2022/08/29 18:19:37;;;;;;;6.20;3.40;;;;;;;19.05;60.52;100029.66;214183;1274;141098;-68
2022/08/29 18:24:42;;;;;;;4.60;4.20;;;;;;;18.92;61.17;100036.64;213451;1274;140627;-67
2022/08/29 18:29:47;;;;;;;5.30;3.40;;;;;;;18.75;61.56;100037.24;214471;1277;139583;-67
2022/08/29 18:34:52;;;;;;;3.40;3.00;;;;;;;18.57;62.04;100036.11;214237;1274;139461;-67
2022/08/29 18:40:03;;;;;;;6.00;3.30;;;;;;;18.39;62.51;100042.20;214923;1273;140021;-66
2022/08/29 18:45:08;;;;;;;5.80;3.30;;;;;;;18.14;63.01;100044.11;214805;1274;139624;-66
2022/08/29 18:55:34;;;;;;;7.70;3.10;;;;;;;17.79;64.06;100050.11;216145;1274;151583;-67
2022/08/29 19:00:38;;;;;;;3.30;2.70;;;;;;;17.75;64.29;100056.10;215454;1275;139880;-66
2022/08/29 19:05:47;;;;;;;4.70;2.80;;;;;;;17.74;64.58;100053.20;215668;1277;140790;-67
2022/08/29 19:10:51;;;;;;;8.90;3.00;;;;;;;17.70;64.81;100054.41;215929;1274;141470;-70
2022/08/29 19:15:58;;;;;;;6.00;3.00;;;;;;;17.62;65.03;100054.58;214585;1274;233570;-66
2022/08/29 19:21:05;;;;;;;5.90;2.70;;;;;;;17.53;65.38;100059.97;215552;1274;139378;-67
2022/08/29 19:26:21;;;;;;;6.80;2.80;;;;;;;17.39;65.45;100065.66;214953;1274;139811;-67
2022/08/29 19:31:27;;;;;;;7.40;3.40;;;;;;;17.23;65.87;100067.71;214863;1274;141445;-66
2022/08/29 19:36:38;;;;;;;8.50;3.30;;;;;;;17.12;66.32;100070.04;213766;1274;141203;-65
2022/08/29 19:41:45;;;;;;;4.10;2.90;;;;;;;17.01;66.67;100071.70;214991;1274;245033;-68
2022/08/29 19:46:50;;;;;;;8.10;3.00;;;;;;;16.93;66.91;100072.40;214404;1274;139554;-66
2022/08/29 19:51:55;;;;;;;5.20;2.90;;;;;;;16.89;67.21;100073.90;213074;1274;140552;-66
2022/08/29 19:56:59;;;;;;;7.50;3.80;;;;;;;16.89;67.54;100072.92;214842;1274;140404;-64
2022/08/29 20:02:03;;;;;;;3.30;2.70;;;;;;;16.87;67.69;100076.91;214120;1277;140806;-67
2022/08/29 20:07:10;;;;;;;4.40;3.00;;;;;;;16.82;67.68;100083.08;213323;1274;140363;-66
2022/08/29 20:12:16;;;;;;;4.40;3.40;;;;;;;16.81;68.01;100083.20;214791;1274;140572;-66
2022/08/29 20:17:21;;;;;;;6.70;4.20;;;;;;;16.73;68.00;100077.71;213256;1274;139748;-67
2022/08/29 20:22:28;;;;;;;7.20;3.90;;;;;;;16.61;68.31;100082.23;214029;1274;142278;-68
2022/08/29 20:27:34;;;;;;;17.80;3.30;;;;;;;16.53;68.71;100096.52;214797;1274;142315;-68
2022/08/29 20:32:38;;;;;;;10.40;3.60;;;;;;;16.43;68.97;100103.55;214218;1274;140418;-67
2022/08/29 20:37:43;;;;;;;8.00;3.60;;;;;;;16.40;69.20;100112.25;214181;1274;141417;-66
2022/08/29 20:42:47;;;;;;;7.50;3.50;;;;;;;16.42;69.50;100114.15;214959;1274;140725;-66
2022/08/29 20:47:51;;;;;;;4.00;3.00;;;;;;;16.45;69.98;100111.10;214448;1276;140158;-67
2022/08/29 20:52:55;;;;;;;8.70;4.30;;;;;;;16.49;70.41;100112.50;215996;1274;139812;-67
2022/08/29 20:58:03;;;;;;;8.20;3.70;;;;;;;16.58;70.61;100109.02;215768;1274;140562;-66
2022/08/29 21:08:30;;;;;;;4.00;3.50;;;;;;;16.80;71.15;100108.20;215873;1274;141252;-68
2022/08/29 21:13:37;;;;;;;4.90;3.10;;;;;;;16.93;71.24;100109.88;214842;1274;140215;-68
2022/08/29 21:18:42;;;;;;;8.20;3.70;;;;;;;16.99;71.37;100115.22;215099;1274;139970;-65
2022/08/29 21:23:48;;;;;;;7.60;4.10;;;;;;;17.05;71.74;100123.10;213772;1274;140335;-67
2022/08/29 21:28:52;;;;;;;4.30;3.50;;;;;;;17.09;71.87;100122.41;213502;1274;141365;-67
2022/08/29 21:33:58;;;;;;;4.20;3.90;;;;;;;17.11;71.78;100124.19;215030;1274;141004;-67
2022/08/29 21:39:11;;;;;;;8.40;3.80;;;;;;;17.16;71.88;100125.41;214881;1274;140160;-66
2022/08/29 21:44:24;;;;;;;5.60;3.50;;;;;;;17.21;72.17;100130.85;214031;1276;139751;-66
2022/08/29 21:49:29;;;;;;;3.70;3.10;;;;;;;17.24;72.37;100131.88;214079;1274;140311;-67
2022/08/29 21:54:34;;;;;;;3.10;2.80;;;;;;;17.26;72.29;100125.38;214310;1274;140121;-68
2022/08/29 21:59:38;;;;;;;5.10;3.10;;;;;;;17.28;72.29;100129.09;213295;1273;139934;-65
2022/08/29 22:04:41;;;;;;;7.40;4.50;;;;;;;17.26;72.10;100129.41;213579;1277;139731;-65
2022/08/29 22:09:45;;;;;;;8.50;3.90;;;;;;;17.18;72.04;100119.38;212635;1274;1581519;-65
2022/08/29 22:20:10;;;;;;;7.10;4.30;;;;;;;17.05;72.04;100131.29;214088;1274;140386;-66
2022/08/29 22:25:15;;;;;;;5.30;4.50;;;;;;;16.99;72.03;100129.88;213380;1274;140260;-66
2022/08/29 22:30:23;;;;;;;6.80;3.80;;;;;;;16.90;71.98;100133.63;214351;1274;141023;-66
2022/08/29 22:35:34;;;;;;;5.60;4.80;;;;;;;16.79;72.02;100132.91;215200;1274;140774;-66
2022/08/29 22:40:39;;;;;;;5.10;3.80;;;;;;;16.68;72.09;100129.80;214763;1274;140512;-65
2022/08/29 22:45:45;;;;;;;6.90;3.40;;;;;;;16.64;72.29;100123.58;215288;1274;141207;-66
2022/08/29 22:50:49;;;;;;;6.20;4.30;;;;;;;16.58;72.48;100121.23;214651;1274;140370;-67
2022/08/29 22:56:01;;;;;;;9.40;4.70;;;;;;;16.48;72.55;100121.48;216095;1274;140442;-66
2022/08/29 23:01:05;;;;;;;6.00;3.80;;;;;;;16.44;72.74;100122.33;215653;1274;163794;-67
2022/08/29 23:06:09;;;;;;;10.80;5.30;;;;;;;16.44;72.82;100127.02;215923;1274;142022;-68
2022/08/29 23:11:15;;;;;;;5.10;3.60;;;;;;;16.45;72.83;100128.48;215891;1275;142234;-67
2022/08/29 23:16:18;;;;;;;7.10;3.30;;;;;;;16.41;72.83;100123.67;216237;1274;140794;-65
2022/08/29 23:21:22;;;;;;;9.40;4.30;;;;;;;16.35;72.79;100124.61;214690;1272;140831;-67
2022/08/29 23:26:27;;;;;;;7.20;4.30;;;;;;;16.30;73.04;100119.47;215207;1274;143333;-67
2022/08/29 23:31:31;;;;;;;6.40;5.00;;;;;;;16.23;73.08;100113.47;214543;1272;142176;-66
2022/08/29 23:36:35;;;;;;;6.70;5.30;;;;;;;16.15;73.56;100115.23;214307;1274;141056;-66
2022/08/29 23:41:40;;;;;;;5.90;4.50;;;;;;;16.16;73.96;100115.98;213890;1274;140508;-65
2022/08/29 23:46:44;;;;;;;5.50;4.40;;;;;;;16.19;74.26;100116.48;214009;1274;141232;-65
2022/08/29 23:51:49;;;;;;;10.50;4.50;;;;;;;16.24;74.45;100115.13;215096;1274;142088;-65